Time;durP1;ratioP1;P1;durP2;ratioP2;P2;SDS_P1;SDS_P2;PMS_P1;PMS_P2;Temp;Humidity;BMP_temperature;BMP_pressure;BME280_temperature;BME280_humidity;BME280_pressure;Samples;Min_cycle;Max_cycle;Signal;HPM_P1;HPM_P2
2021/03/24 00:00:50;;;;;;;67.20;35.13;;;3.60;99.90;;;;;;5053216;28;20238;-65
2021/03/24 00:03:16;;;;;;;71.63;34.17;;;3.50;99.90;;;;;;5038166;28;20669;-65
2021/03/24 00:05:45;;;;;;;62.97;34.70;;;3.50;99.90;;;;;;5033419;28;20637;-65
2021/03/24 00:08:12;;;;;;;60.43;33.63;;;3.50;99.90;;;;;;5046516;28;20194;-65
2021/03/24 00:10:38;;;;;;;71.40;34.40;;;3.40;99.90;;;;;;5053136;28;20171;-65
2021/03/24 00:13:05;;;;;;;64.73;32.67;;;3.50;99.90;;;;;;5040639;28;20185;-65
2021/03/24 00:15:31;;;;;;;65.07;31.97;;;3.50;99.90;;;;;;5034354;28;20183;-65
2021/03/24 00:17:57;;;;;;;60.80;32.27;;;3.50;99.90;;;;;;5031723;28;20195;-65
2021/03/24 00:20:27;;;;;;;54.10;30.63;;;3.40;99.90;;;;;;5042883;28;20593;-65
2021/03/24 00:22:53;;;;;;;60.63;32.40;;;3.40;99.90;;;;;;5038625;28;20176;-65
2021/03/24 00:25:20;;;;;;;62.43;32.77;;;3.30;99.90;;;;;;5042172;28;20532;-65
2021/03/24 00:27:48;;;;;;;64.83;33.00;;;3.30;99.90;;;;;;5053130;28;20193;-65
2021/03/24 00:30:18;;;;;;;64.83;32.60;;;3.30;99.90;;;;;;5043611;28;20210;-65
2021/03/24 00:32:43;;;;;;;67.57;33.50;;;3.30;99.90;;;;;;5034096;28;20187;-65
2021/03/24 00:35:10;;;;;;;59.37;32.93;;;3.30;99.90;;;;;;5032544;28;20651;-65
2021/03/24 00:37:36;;;;;;;64.53;32.27;;;3.20;99.90;;;;;;5039316;28;20285;-65
2021/03/24 00:40:05;;;;;;;72.20;33.03;;;3.20;99.90;;;;;;5052723;28;20591;-65
2021/03/24 00:42:31;;;;;;;75.07;36.27;;;3.10;99.90;;;;;;5046041;28;20182;-65
2021/03/24 00:44:56;;;;;;;64.30;34.43;;;3.10;99.90;;;;;;5032878;28;20172;-65
2021/03/24 00:47:22;;;;;;;63.17;32.97;;;3.10;99.90;;;;;;5035255;28;20186;-65
2021/03/24 00:49:48;;;;;;;57.97;33.57;;;3.10;99.90;;;;;;5051898;28;20178;-65
2021/03/24 00:52:13;;;;;;;58.70;32.73;;;3.10;99.90;;;;;;5050534;28;20198;-65
2021/03/24 00:54:39;;;;;;;60.70;33.57;;;3.00;99.90;;;;;;5032701;28;20172;-65
2021/03/24 00:57:05;;;;;;;67.37;32.80;;;3.00;99.90;;;;;;5032488;28;20202;-65
2021/03/24 00:59:31;;;;;;;66.63;31.90;;;3.00;99.90;;;;;;5052379;28;20549;-65
2021/03/24 01:01:56;;;;;;;63.47;33.03;;;3.00;99.90;;;;;;5052249;28;20198;-65
2021/03/24 01:04:22;;;;;;;62.87;33.23;;;3.10;99.90;;;;;;5033865;28;20266;-65
2021/03/24 01:06:49;;;;;;;65.73;33.17;;;3.10;99.90;;;;;;5032344;28;20546;-65
2021/03/24 01:09:14;;;;;;;62.10;31.77;;;3.10;99.90;;;;;;5049319;28;20186;-65
2021/03/24 01:11:40;;;;;;;62.40;32.90;;;3.10;99.90;;;;;;5051941;28;20175;-65
2021/03/24 01:14:10;;;;;;;68.47;32.67;;;3.10;99.90;;;;;;5037080;28;20175;-65
2021/03/24 01:16:37;;;;;;;65.13;32.43;;;3.10;99.90;;;;;;5042931;28;20182;-65
2021/03/24 01:19:03;;;;;;;64.33;32.30;;;3.20;99.90;;;;;;5050513;28;20263;-65
2021/03/24 01:21:29;;;;;;;63.40;32.63;;;3.10;99.90;;;;;;5042309;28;20607;-65
2021/03/24 01:23:54;;;;;;;66.50;32.27;;;3.20;99.90;;;;;;5032284;28;20186;-65
2021/03/24 01:26:21;;;;;;;65.03;31.30;;;3.20;99.90;;;;;;5039374;28;20666;-65
2021/03/24 01:28:57;;;;;;;62.70;32.43;;;3.10;99.90;;;;;;5050182;28;20202;-65
2021/03/24 01:31:26;;;;;;;61.80;29.43;;;3.10;99.90;;;;;;5030972;28;20167;-65
2021/03/24 01:33:52;;;;;;;67.90;31.70;;;3.10;99.90;;;;;;5032436;28;20202;-65
2021/03/24 01:36:18;;;;;;;65.20;32.90;;;3.10;99.90;;;;;;5051968;28;20644;-65
2021/03/24 01:38:44;;;;;;;64.27;31.80;;;3.10;99.90;;;;;;5051485;28;20558;-65
2021/03/24 01:41:10;;;;;;;60.30;31.90;;;3.10;99.90;;;;;;5036653;28;20283;-65
2021/03/24 01:43:36;;;;;;;59.33;29.57;;;3.00;99.90;;;;;;5031640;28;20168;-65
2021/03/24 01:46:17;;;;;;;60.63;30.77;;;3.10;99.90;;;;;;5049738;28;20605;-65
2021/03/24 01:48:48;;;;;;;61.73;30.40;;;3.00;99.90;;;;;;5051564;28;20198;-65
2021/03/24 01:51:15;;;;;;;68.40;30.80;;;2.90;99.90;;;;;;5031056;28;20182;-65
2021/03/24 01:53:42;;;;;;;66.40;32.50;;;2.90;99.90;;;;;;5031604;28;20584;-65
2021/03/24 01:56:10;;;;;;;66.33;31.73;;;2.80;99.90;;;;;;5049019;28;20183;-65
2021/03/24 01:58:37;;;;;;;60.97;30.40;;;2.70;99.90;;;;;;5051278;28;20203;-65
2021/03/24 02:01:15;;;;;;;60.53;31.30;;;2.70;99.90;;;;;;5035160;28;20199;-65
2021/03/24 02:03:42;;;;;;;61.93;30.83;;;2.70;99.90;;;;;;5021872;28;20194;-65
2021/03/24 02:06:20;;;;;;;58.83;29.60;;;2.60;99.90;;;;;;5051542;28;20213;-65
2021/03/24 02:08:54;;;;;;;62.83;31.47;;;2.50;99.90;;;;;;5011805;28;20204;-65
2021/03/24 02:11:58;;;;;;;64.93;33.07;;;2.50;99.90;;;;;;5012818;28;20200;-65
2021/03/24 02:14:35;;;;;;;64.03;31.03;;;2.50;99.90;;;;;;5039962;28;20264;-65
2021/03/24 02:17:03;;;;;;;59.63;30.63;;;2.50;99.90;;;;;;5049316;28;20529;-65
2021/03/24 02:19:56;;;;;;;66.53;32.57;;;2.40;99.90;;;;;;5031522;28;20172;-65
2021/03/24 02:22:25;;;;;;;62.50;31.03;;;2.40;99.90;;;;;;5011401;28;20204;-65
2021/03/24 02:25:12;;;;;;;74.97;32.93;;;2.40;99.90;;;;;;5021972;28;20179;-65
2021/03/24 02:27:46;;;;;;;72.83;33.80;;;2.40;99.90;;;;;;5031169;28;20273;-65
2021/03/24 02:30:17;;;;;;;65.33;32.40;;;2.50;99.90;;;;;;5042280;28;20268;-65
2021/03/24 02:33:09;;;;;;;63.57;30.83;;;2.50;99.90;;;;;;5051205;28;20175;-65
2021/03/24 02:35:37;;;;;;;70.03;32.83;;;2.40;99.90;;;;;;5037606;28;20252;-65
2021/03/24 02:38:07;;;;;;;63.10;32.43;;;2.40;99.90;;;;;;5040880;28;20203;-65
2021/03/24 02:40:34;;;;;;;70.10;34.60;;;2.40;99.90;;;;;;5045001;28;20195;-65
2021/03/24 02:43:01;;;;;;;74.13;33.10;;;2.40;99.90;;;;;;5043904;28;20175;-65
2021/03/24 02:45:33;;;;;;;72.00;33.57;;;2.40;99.90;;;;;;5050911;28;20175;-65
2021/03/24 02:48:04;;;;;;;81.87;35.97;;;2.40;99.90;;;;;;5035134;28;20607;-65
2021/03/24 02:50:31;;;;;;;69.53;33.00;;;2.30;99.90;;;;;;5037089;28;20742;-65
2021/03/24 02:52:59;;;;;;;68.63;31.57;;;2.30;99.90;;;;;;5053343;28;20253;-65
2021/03/24 02:55:26;;;;;;;75.13;33.87;;;2.30;99.90;;;;;;5052440;28;21747;-65
2021/03/24 02:57:52;;;;;;;70.03;34.93;;;2.30;99.90;;;;;;5033761;28;20221;-65
2021/03/24 03:00:21;;;;;;;71.17;33.20;;;2.20;99.90;;;;;;5035198;28;20278;-65
2021/03/24 03:02:52;;;;;;;74.83;33.10;;;2.30;99.90;;;;;;5036196;28;20188;-66
2021/03/24 03:05:26;;;;;;;76.07;32.80;;;2.30;99.90;;;;;;5034946;28;20221;-65
2021/03/24 03:08:28;;;;;;;79.37;34.90;;;2.30;99.90;;;;;;5014889;28;20277;-66
2021/03/24 03:11:31;;;;;;;75.30;34.57;;;2.30;99.90;;;;;;5020312;28;20217;-66
2021/03/24 03:14:03;;;;;;;83.63;34.43;;;2.30;99.90;;;;;;5034546;28;20211;-66
2021/03/24 03:16:38;;;;;;;71.73;33.93;;;2.30;99.90;;;;;;5042831;28;20175;-66
2021/03/24 03:19:12;;;;;;;76.60;32.80;;;2.30;99.90;;;;;;5054611;28;20209;-66
2021/03/24 03:21:45;;;;;;;74.43;33.33;;;2.30;99.90;;;;;;5045164;28;20206;-66
2021/03/24 03:24:11;;;;;;;72.47;31.33;;;2.30;99.90;;;;;;5034602;28;20167;-66
2021/03/24 03:26:40;;;;;;;70.53;31.27;;;2.40;99.90;;;;;;5042674;28;20189;-66
2021/03/24 03:29:11;;;;;;;74.90;32.10;;;2.40;99.90;;;;;;5049683;28;20203;-66
2021/03/24 03:31:39;;;;;;;64.27;30.70;;;2.40;99.90;;;;;;5033877;28;20187;-66
2021/03/24 03:34:09;;;;;;;72.80;31.13;;;2.40;99.90;;;;;;5036460;28;20174;-66
2021/03/24 03:36:38;;;;;;;74.67;32.00;;;2.30;99.90;;;;;;5054108;28;20187;-66
2021/03/24 03:39:09;;;;;;;69.60;31.40;;;2.30;99.90;;;;;;5051132;28;20195;-66
2021/03/24 03:41:36;;;;;;;67.30;30.80;;;2.30;99.90;;;;;;5034982;28;20211;-65
2021/03/24 03:44:05;;;;;;;63.20;29.77;;;2.30;99.90;;;;;;5043094;28;20186;-66
2021/03/24 03:46:34;;;;;;;72.63;32.90;;;2.30;99.90;;;;;;5053965;28;20175;-66
2021/03/24 03:49:00;;;;;;;72.47;31.33;;;2.20;99.90;;;;;;5045394;28;20206;-66
2021/03/24 03:52:06;;;;;;;78.37;32.43;;;2.20;99.90;;;;;;5033777;28;20179;-66
2021/03/24 03:54:37;;;;;;;63.13;31.90;;;2.10;99.90;;;;;;5044553;28;20190;-65
2021/03/24 03:57:24;;;;;;;75.87;32.03;;;2.10;99.90;;;;;;5053755;28;20190;-66
2021/03/24 03:59:57;;;;;;;72.50;32.60;;;2.00;99.90;;;;;;5039367;28;20269;-66
2021/03/24 04:02:34;;;;;;;68.23;31.23;;;2.00;99.90;;;;;;5034147;28;20179;-66
2021/03/24 04:05:06;;;;;;;79.50;33.00;;;2.00;99.90;;;;;;5047980;28;20672;-66
2021/03/24 04:07:41;;;;;;;64.30;32.20;;;1.90;99.90;;;;;;5053605;28;20257;-64
2021/03/24 04:10:08;;;;;;;77.00;36.03;;;1.90;99.90;;;;;;5038353;28;20652;-66
2021/03/24 04:12:37;;;;;;;76.90;32.00;;;1.90;99.90;;;;;;5033635;28;20176;-66
2021/03/24 04:15:22;;;;;;;69.50;32.83;;;1.80;99.90;;;;;;5046813;28;20204;-66
2021/03/24 04:17:51;;;;;;;73.87;30.13;;;1.90;99.90;;;;;;5053215;28;20206;-66
2021/03/24 04:20:20;;;;;;;60.53;29.20;;;1.90;99.90;;;;;;5038204;28;20266;-66
2021/03/24 04:22:50;;;;;;;75.50;32.53;;;1.90;99.90;;;;;;5033566;28;20175;-66
2021/03/24 04:25:24;;;;;;;70.83;32.27;;;1.90;99.90;;;;;;5047113;28;20178;-66
2021/03/24 04:27:50;;;;;;;78.50;31.30;;;1.90;99.90;;;;;;5052987;28;20216;-66
2021/03/24 04:30:21;;;;;;;77.57;32.87;;;1.90;99.90;;;;;;5051288;28;20170;-66
2021/03/24 04:32:47;;;;;;;77.43;31.27;;;1.90;99.90;;;;;;5053179;28;20262;-66
2021/03/24 04:35:18;;;;;;;72.03;30.60;;;1.80;99.90;;;;;;5039623;28;20683;-66
2021/03/24 04:37:49;;;;;;;73.77;30.77;;;1.90;99.90;;;;;;5032922;28;20772;-66
2021/03/24 04:40:27;;;;;;;63.83;29.60;;;1.80;99.90;;;;;;5044234;28;20190;-66
2021/03/24 04:43:10;;;;;;;61.30;29.60;;;1.70;99.90;;;;;;5053143;28;20227;-65
2021/03/24 04:46:00;;;;;;;66.57;30.30;;;1.80;99.90;;;;;;5051227;28;20577;-66
2021/03/24 04:48:34;;;;;;;74.23;30.23;;;1.70;99.90;;;;;;5013235;28;20630;-66
2021/03/24 04:51:22;;;;;;;65.67;31.53;;;1.70;99.90;;;;;;5032087;28;20549;-66
2021/03/24 04:53:54;;;;;;;65.13;29.47;;;1.70;99.90;;;;;;5031645;28;20690;-66
2021/03/24 04:56:21;;;;;;;72.53;30.40;;;1.70;99.90;;;;;;5051411;28;20178;-66
2021/03/24 04:58:53;;;;;;;71.77;30.43;;;1.70;99.90;;;;;;5052450;28;20264;-65
2021/03/24 05:01:25;;;;;;;72.07;29.93;;;1.60;99.90;;;;;;5034292;28;20211;-66
2021/03/24 05:04:02;;;;;;;71.70;30.10;;;1.60;99.90;;;;;;5032460;28;20557;-66
2021/03/24 05:06:42;;;;;;;80.80;31.57;;;1.60;99.90;;;;;;5050754;28;20178;-66
2021/03/24 05:09:09;;;;;;;78.63;31.80;;;1.60;99.90;;;;;;5052415;28;20270;-66
2021/03/24 05:11:45;;;;;;;79.17;31.90;;;1.60;99.90;;;;;;5033040;28;20215;-65
2021/03/24 05:14:33;;;;;;;80.27;30.63;;;1.60;99.90;;;;;;5032473;28;20171;-66
2021/03/24 05:17:18;;;;;;;66.00;30.37;;;1.60;99.90;;;;;;5012612;28;20549;-66
2021/03/24 05:19:45;;;;;;;73.60;31.00;;;1.60;99.90;;;;;;5048795;28;20185;-64
2021/03/24 05:22:24;;;;;;;72.37;30.50;;;1.50;99.90;;;;;;5050719;28;20293;-66
2021/03/24 05:24:54;;;;;;;66.60;30.23;;;1.50;99.90;;;;;;5035054;28;20218;-65
2021/03/24 05:27:27;;;;;;;75.07;30.10;;;1.50;99.90;;;;;;5052150;28;20198;-66
2021/03/24 05:29:58;;;;;;;72.33;29.57;;;1.50;99.90;;;;;;5035487;28;20179;-66
2021/03/24 05:32:30;;;;;;;67.93;29.30;;;1.60;99.90;;;;;;5050437;28;20266;-66
2021/03/24 05:34:59;;;;;;;71.47;29.53;;;1.60;99.90;;;;;;5033737;28;20728;-66
2021/03/24 05:37:31;;;;;;;78.23;31.63;;;1.60;99.90;;;;;;5033652;28;20205;-66
2021/03/24 05:40:39;;;;;;;85.27;30.90;;;1.60;99.90;;;;;;5045382;28;20240;-66
2021/03/24 05:43:36;;;;;;;80.67;30.53;;;1.60;99.90;;;;;;5038348;28;20201;-65
2021/03/24 05:46:40;;;;;;;76.47;30.67;;;1.60;99.90;;;;;;5051776;28;20167;-66
2021/03/24 05:49:21;;;;;;;85.50;32.47;;;1.60;99.90;;;;;;5037121;28;20203;-65
2021/03/24 05:51:56;;;;;;;85.67;29.93;;;1.70;99.90;;;;;;5011479;28;20287;-65
2021/03/24 05:54:34;;;;;;;78.33;31.07;;;1.70;99.90;;;;;;5043913;28;20186;-66
2021/03/24 05:57:20;;;;;;;83.00;32.07;;;1.70;99.90;;;;;;5051591;28;20179;-66
2021/03/24 06:00:04;;;;;;;69.93;31.27;;;1.80;99.90;;;;;;5035835;28;20186;-66
2021/03/24 06:02:56;;;;;;;85.30;33.90;;;1.90;99.90;;;;;;5051497;28;20233;-66
2021/03/24 06:05:39;;;;;;;82.67;33.37;;;2.00;99.90;;;;;;5012003;28;20168;-66
2021/03/24 06:08:39;;;;;;;82.63;34.93;;;2.10;99.90;;;;;;5025940;28;20199;-66
2021/03/24 06:11:19;;;;;;;91.57;34.20;;;2.20;99.90;;;;;;5031268;28;20254;-65
2021/03/24 06:14:04;;;;;;;78.17;32.57;;;2.40;99.90;;;;;;5048961;28;20178;-66
2021/03/24 06:17:11;;;;;;;77.63;33.00;;;2.40;99.90;;;;;;5050960;28;20257;-66
2021/03/24 06:19:56;;;;;;;81.53;32.63;;;2.50;99.90;;;;;;5010593;28;20264;-66
2021/03/24 06:22:40;;;;;;;88.63;33.97;;;2.60;99.90;;;;;;5022431;28;20663;-66
2021/03/24 06:25:24;;;;;;;73.63;31.53;;;2.70;99.90;;;;;;5049818;28;20627;-67
2021/03/24 06:28:17;;;;;;;79.57;32.43;;;2.70;99.90;;;;;;5042464;28;20210;-66
2021/03/24 06:31:02;;;;;;;83.30;33.13;;;2.80;99.90;;;;;;5031046;28;20171;-66
2021/03/24 06:33:48;;;;;;;73.33;31.27;;;2.90;99.90;;;;;;5043400;28;20235;-65
2021/03/24 06:36:51;;;;;;;72.33;32.20;;;3.00;99.90;;;;;;5051306;28;20177;-66
2021/03/24 06:39:41;;;;;;;69.17;32.93;;;3.00;99.90;;;;;;5031632;28;20254;-66
2021/03/24 06:42:12;;;;;;;89.27;35.80;;;3.10;99.90;;;;;;5031067;28;20233;-66
2021/03/24 06:45:09;;;;;;;72.33;33.30;;;3.30;99.90;;;;;;5049709;28;20175;-65
2021/03/24 06:47:59;;;;;;;79.10;33.73;;;3.40;99.90;;;;;;5040535;28;20304;-66
2021/03/24 06:50:31;;;;;;;78.23;32.53;;;3.50;99.90;;;;;;5031096;28;20214;-66
2021/03/24 06:53:30;;;;;;;79.30;35.17;;;3.70;99.90;;;;;;5043628;28;20187;-66
2021/03/24 06:56:37;;;;;;;83.40;34.57;;;4.00;99.90;;;;;;5034133;28;20191;-65
2021/03/24 06:59:11;;;;;;;64.87;31.43;;;4.50;99.90;;;;;;4990179;28;20227;-66
2021/03/24 07:01:55;;;;;;;61.37;31.93;;;4.80;99.90;;;;;;4995138;28;20277;-66
2021/03/24 07:04:31;;;;;;;68.00;30.67;;;5.10;99.90;;;;;;5023744;28;20190;-66
2021/03/24 07:07:15;;;;;;;47.07;26.63;;;5.50;99.90;;;;;;5029688;28;20188;-66
2021/03/24 07:09:55;;;;;;;49.93;25.87;;;5.90;99.90;;;;;;5040471;28;20178;-66
2021/03/24 07:12:55;;;;;;;43.13;24.37;;;6.20;99.90;;;;;;5046036;28;20182;-66
2021/03/24 07:15:51;;;;;;;38.67;22.03;;;6.50;99.90;;;;;;5023976;28;20282;-67
2021/03/24 07:18:28;;;;;;;36.17;21.60;;;6.90;99.90;;;;;;5030811;28;20230;-66
2021/03/24 07:21:15;;;;;;;32.73;20.80;;;7.10;99.90;;;;;;5030323;28;20211;-67
2021/03/24 07:23:47;;;;;;;34.13;19.23;;;7.40;99.90;;;;;;5030695;28;20167;-66
2021/03/24 07:26:46;;;;;;;30.00;19.33;;;7.50;99.90;;;;;;5042931;28;20195;-67
2021/03/24 07:29:21;;;;;;;30.37;18.07;;;7.70;99.90;;;;;;5050890;28;20257;-66
2021/03/24 07:31:58;;;;;;;29.70;18.30;;;8.00;99.90;;;;;;5053589;28;20182;-67
2021/03/24 07:35:00;;;;;;;31.30;18.73;;;8.30;99.90;;;;;;5036016;28;20238;-66
2021/03/24 07:37:51;;;;;;;27.47;18.00;;;8.60;99.90;;;;;;5025704;28;20810;-67
2021/03/24 07:41:13;;;;;;;30.43;17.63;;;9.00;99.90;;;;;;5014155;28;20234;-66
2021/03/24 07:43:54;;;;;;;30.67;17.47;;;9.20;99.90;;;;;;5011135;28;20187;-66
2021/03/24 07:46:30;;;;;;;29.10;17.40;;;9.40;99.90;;;;;;5030019;28;20210;-67
2021/03/24 07:49:14;;;;;;;29.47;18.50;;;9.60;99.90;;;;;;5037137;28;20229;-67
2021/03/24 07:52:03;;;;;;;28.67;17.03;;;9.90;99.90;;;;;;5032586;28;20669;-67
2021/03/24 07:55:01;;;;;;;30.03;19.57;;;10.40;99.90;;;;;;5034933;28;20183;-66
2021/03/24 07:57:35;;;;;;;30.87;18.23;;;10.90;99.90;;;;;;5013796;28;20216;-67
2021/03/24 08:00:22;;;;;;;29.67;18.43;;;11.30;99.90;;;;;;5033166;28;20183;-66
2021/03/24 08:03:10;;;;;;;26.43;16.87;;;11.60;99.90;;;;;;5034630;28;20194;-66
2021/03/24 08:05:54;;;;;;;26.83;16.60;;;11.80;99.90;;;;;;5053403;28;20171;-66
2021/03/24 08:08:19;;;;;;;26.10;17.50;;;11.90;99.90;;;;;;5043339;28;20202;-66
2021/03/24 08:11:23;;;;;;;41.03;25.53;;;12.10;99.90;;;;;;5033221;28;20544;-67
2021/03/24 08:14:16;;;;;;;33.70;23.50;;;12.30;99.90;;;;;;5046629;28;20710;-67
2021/03/24 08:16:51;;;;;;;31.63;20.17;;;12.40;99.90;;;;;;5052182;28;20567;-67
2021/03/24 08:19:43;;;;;;;27.37;18.07;;;12.60;99.90;;;;;;5036240;28;20186;-66
2021/03/24 08:22:29;;;;;;;55.63;34.30;;;13.00;99.90;;;;;;5053273;28;20640;-66
2021/03/24 08:25:16;;;;;;;37.83;23.53;;;13.30;99.90;;;;;;5052937;28;20236;-66
2021/03/24 08:28:03;;;;;;;30.17;18.67;;;13.50;99.90;;;;;;5013318;28;20200;-67
2021/03/24 08:31:03;;;;;;;31.10;18.23;;;13.70;99.90;;;;;;5019312;28;20190;-67
2021/03/24 08:34:06;;;;;;;26.07;17.17;;;13.90;99.90;;;;;;5031999;28;20194;-66
2021/03/24 08:37:01;;;;;;;25.37;16.93;;;14.20;99.90;;;;;;5045105;28;20548;-67
2021/03/24 08:40:05;;;;;;;28.53;17.83;;;14.50;99.90;;;;;;5051143;28;20713;-67
2021/03/24 08:42:50;;;;;;;26.10;17.40;;;14.80;99.90;;;;;;5033091;28;20692;-65
2021/03/24 08:45:37;;;;;;;25.73;16.87;;;15.00;99.90;;;;;;5033560;28;20270;-65
2021/03/24 08:48:07;;;;;;;30.17;18.40;;;15.10;99.90;;;;;;5052922;28;20433;-65
2021/03/24 08:50:40;;;;;;;27.20;17.83;;;15.30;99.90;;;;;;5049491;28;20190;-65
2021/03/24 08:53:37;;;;;;;29.53;17.43;;;15.60;99.90;;;;;;5032684;28;20234;-65
2021/03/24 08:56:19;;;;;;;25.13;18.07;;;16.10;99.90;;;;;;5033781;28;20572;-67
2021/03/24 08:59:08;;;;;;;30.83;18.57;;;16.40;99.90;;;;;;5048934;28;20221;-67
2021/03/24 09:01:49;;;;;;;27.73;17.93;;;16.70;99.90;;;;;;5038436;28;20253;-67
2021/03/24 09:04:24;;;;;;;26.37;18.40;;;17.10;99.90;;;;;;5032606;28;20199;-66
2021/03/24 09:07:14;;;;;;;30.63;18.53;;;17.10;99.90;;;;;;5047751;28;20644;-67
2021/03/24 09:09:59;;;;;;;28.33;18.73;;;17.10;99.90;;;;;;5052406;28;20167;-66
2021/03/24 09:12:38;;;;;;;29.50;19.20;;;17.10;99.90;;;;;;5032540;28;20184;-67
2021/03/24 09:15:21;;;;;;;33.57;19.03;;;17.30;99.90;;;;;;5012853;28;20235;-67
2021/03/24 09:18:08;;;;;;;32.47;19.40;;;17.40;99.90;;;;;;5013877;28;20207;-66
2021/03/24 09:20:50;;;;;;;33.70;21.17;;;17.50;99.90;;;;;;5051789;28;20269;-67
2021/03/24 09:23:18;;;;;;;29.00;18.50;;;17.70;99.90;;;;;;5036901;28;20210;-67
2021/03/24 09:26:18;;;;;;;31.33;19.67;;;17.70;99.90;;;;;;5049913;28;20187;-66
2021/03/24 09:28:53;;;;;;;31.35;19.50;;;17.90;99.90;;;;;;5034515;28;20293;-66
2021/03/24 09:31:56;;;;;;;28.17;19.27;;;18.10;99.90;;;;;;5032993;28;20365;-65
2021/03/24 09:34:50;;;;;;;37.70;19.38;;;18.20;99.90;;;;;;5030632;28;20186;-66
2021/03/24 09:37:24;;;;;;;31.23;19.30;;;18.10;99.90;;;;;;5012394;28;20254;-65
2021/03/24 09:40:00;;;;;;;33.30;19.93;;;18.20;99.90;;;;;;5012224;28;20179;-66
2021/03/24 09:42:41;;;;;;;29.75;20.17;;;18.40;99.90;;;;;;5012164;28;20208;-66
2021/03/24 09:45:15;;;;;;;30.58;18.83;;;18.50;99.90;;;;;;5013727;28;20200;-66
2021/03/24 09:47:58;;;;;;;34.35;18.33;;;18.90;99.90;;;;;;5049869;28;20657;-66
2021/03/24 09:50:33;;;;;;;30.70;19.30;;;19.20;99.90;;;;;;5051283;28;20196;-66
2021/03/24 09:53:19;;;;;;;30.20;21.02;;;19.60;99.90;;;;;;5047628;28;20213;-65
2021/03/24 09:55:46;;;;;;;35.83;20.63;;;19.60;99.90;;;;;;5031884;28;20634;-66
2021/03/24 09:58:24;;;;;;;28.92;19.25;;;19.60;99.90;;;;;;5036712;28;20671;-67
2021/03/24 10:01:11;;;;;;;31.13;20.17;;;19.60;99.90;;;;;;5040299;28;20200;-66
2021/03/24 10:04:06;;;;;;;31.42;20.00;;;19.70;99.90;;;;;;5039236;28;20186;-66
2021/03/24 10:06:41;;;;;;;31.23;19.83;;;19.60;99.90;;;;;;5049759;28;20174;-66
2021/03/24 10:09:27;;;;;;;30.48;18.83;;;19.80;99.90;;;;;;5039869;28;20203;-66
2021/03/24 10:12:13;;;;;;;31.42;18.42;;;20.00;99.90;;;;;;5031104;28;20683;-67
2021/03/24 10:15:05;;;;;;;36.65;21.00;;;20.10;99.90;;;;;;5046337;28;20554;-67
2021/03/24 10:17:38;;;;;;;34.92;20.27;;;20.10;99.90;;;;;;5051315;28;20686;-64
2021/03/24 10:20:25;;;;;;;32.20;18.85;;;20.40;99.90;;;;;;5033030;28;20183;-65
2021/03/24 10:23:03;;;;;;;31.83;20.40;;;20.80;99.90;;;;;;5031418;28;20176;-65
2021/03/24 10:25:43;;;;;;;32.10;20.38;;;20.70;99.90;;;;;;5034873;28;20173;-64
2021/03/24 10:28:17;;;;;;;28.50;19.42;;;20.60;99.90;;;;;;5032915;28;20684;-67
2021/03/24 10:30:54;;;;;;;27.67;18.35;;;20.60;99.90;;;;;;5030994;28;20535;-66
2021/03/24 10:33:36;;;;;;;33.05;19.77;;;20.70;99.90;;;;;;5046603;28;20185;-67
2021/03/24 10:36:07;;;;;;;28.17;17.92;;;21.20;99.90;;;;;;5051170;28;20217;-65
2021/03/24 10:39:03;;;;;;;27.88;17.67;;;21.70;99.90;;;;;;5034498;28;20202;-65
2021/03/24 10:41:39;;;;;;;27.02;14.98;;;21.00;99.90;;;;;;5029005;28;20223;-65
2021/03/24 10:44:17;;;;;;;28.15;16.42;;;21.00;99.90;;;;;;5011775;28;20167;-65
2021/03/24 10:47:02;;;;;;;30.27;15.43;;;21.10;99.90;;;;;;5012396;28;20164;-65
2021/03/24 10:49:40;;;;;;;28.48;16.52;;;20.90;99.90;;;;;;5051455;28;20795;-64
2021/03/24 10:52:14;;;;;;;33.75;18.15;;;20.60;99.90;;;;;;5032338;28;20191;-65
2021/03/24 10:54:40;;;;;;;29.15;17.90;;;19.50;99.90;;;;;;5031238;28;20224;-65
2021/03/24 10:57:33;;;;;;;32.33;17.92;;;19.10;99.90;;;;;;5047039;28;20305;-65
2021/03/24 11:00:17;;;;;;;30.70;18.45;;;19.10;99.90;;;;;;5011363;28;20184;-64
2021/03/24 11:03:00;;;;;;;33.15;17.92;;;19.20;99.90;;;;;;5025286;28;20695;-66
2021/03/24 11:05:48;;;;;;;30.75;18.27;;;19.60;99.90;;;;;;5015173;28;20176;-64
2021/03/24 11:08:31;;;;;;;32.47;18.17;;;19.90;99.90;;;;;;5047934;28;20183;-64
2021/03/24 11:11:11;;;;;;;36.33;19.23;;;20.40;99.90;;;;;;5054537;28;20182;-64
2021/03/24 11:13:51;;;;;;;32.13;19.42;;;20.50;99.90;;;;;;5054504;28;20538;-65
2021/03/24 11:16:26;;;;;;;35.08;20.35;;;20.90;99.90;;;;;;5054160;28;20512;-64
2021/03/24 11:19:04;;;;;;;32.85;20.00;;;20.60;99.90;;;;;;5054454;28;20187;-65
2021/03/24 11:21:47;;;;;;;34.50;19.70;;;20.90;99.90;;;;;;5054091;28;20248;-64
2021/03/24 11:24:20;;;;;;;33.97;20.25;;;21.30;99.90;;;;;;5054476;28;20177;-65
2021/03/24 11:26:55;;;;;;;35.30;20.98;;;21.20;99.90;;;;;;5054348;28;20179;-65
2021/03/24 11:29:23;;;;;;;33.75;20.10;;;21.20;99.90;;;;;;5054627;28;20245;-64
2021/03/24 11:31:55;;;;;;;35.97;20.85;;;21.30;99.90;;;;;;5053988;28;20269;-64
2021/03/24 11:34:25;;;;;;;36.70;20.52;;;21.30;99.90;;;;;;5054324;28;20219;-64
2021/03/24 11:36:55;;;;;;;38.38;20.85;;;21.30;99.90;;;;;;5054264;28;20175;-65
2021/03/24 11:39:27;;;;;;;38.60;21.35;;;21.50;99.90;;;;;;5054236;28;20178;-65
2021/03/24 11:42:18;;;;;;;37.00;21.02;;;21.70;99.90;;;;;;5053658;28;20256;-65
2021/03/24 11:44:46;;;;;;;37.33;21.05;;;21.80;99.90;;;;;;5053852;28;20713;-65
2021/03/24 11:48:00;;;;;;;36.05;20.65;;;21.70;99.90;;;;;;5054014;28;20236;-65
2021/03/24 11:50:26;;;;;;;35.65;21.85;;;22.10;99.90;;;;;;5038992;28;20198;-65
2021/03/24 11:53:00;;;;;;;34.13;20.90;;;22.30;99.90;;;;;;5053684;28;20170;-64
2021/03/24 11:55:45;;;;;;;36.35;21.40;;;22.10;99.90;;;;;;5053842;28;20211;-64
2021/03/24 11:58:29;;;;;;;36.58;21.20;;;21.80;99.90;;;;;;5053447;28;20225;-65
2021/03/24 12:01:27;;;;;;;42.78;22.58;;;21.80;99.90;;;;;;5053559;28;20209;-65
2021/03/24 12:03:58;;;;;;;36.78;21.33;;;22.00;99.90;;;;;;5044258;28;20190;-64
2021/03/24 12:07:08;;;;;;;35.33;22.10;;;21.90;99.90;;;;;;5053702;28;20167;-64
2021/03/24 12:09:38;;;;;;;38.75;21.33;;;21.30;99.90;;;;;;5033583;28;20587;-65
2021/03/24 12:12:22;;;;;;;41.42;22.20;;;21.00;99.90;;;;;;5035887;28;20179;-65
2021/03/24 12:15:12;;;;;;;38.65;21.45;;;20.90;99.90;;;;;;5033755;28;20210;-65
2021/03/24 12:17:38;;;;;;;38.10;21.48;;;21.20;99.90;;;;;;5035084;28;20209;-65
2021/03/24 12:20:13;;;;;;;41.45;22.65;;;21.70;99.90;;;;;;5049762;28;20546;-65
2021/03/24 12:22:49;;;;;;;39.42;23.27;;;22.00;99.90;;;;;;5033240;28;20623;-65
2021/03/24 12:25:21;;;;;;;39.33;21.48;;;22.20;99.90;;;;;;5036408;28;20177;-65
2021/03/24 12:27:50;;;;;;;40.42;22.92;;;22.60;99.90;;;;;;5053137;28;20197;-67
2021/03/24 12:30:28;;;;;;;38.63;22.27;;;22.70;99.90;;;;;;5051064;28;20556;-67
2021/03/24 12:33:16;;;;;;;44.10;22.13;;;22.80;99.90;;;;;;5053190;28;20694;-68
2021/03/24 12:35:47;;;;;;;40.22;22.10;;;22.90;99.90;;;;;;5043212;28;20514;-65
2021/03/24 12:38:17;;;;;;;34.70;20.70;;;22.90;99.90;;;;;;5033148;28;20192;-65
2021/03/24 12:40:53;;;;;;;38.45;21.05;;;23.10;99.90;;;;;;5041557;28;20190;-65
2021/03/24 12:43:24;;;;;;;37.38;22.48;;;23.10;99.90;;;;;;5053140;28;20174;-65
2021/03/24 12:45:50;;;;;;;37.55;22.42;;;23.20;99.90;;;;;;5043048;28;20206;-65
2021/03/24 12:48:21;;;;;;;39.80;22.27;;;23.20;99.90;;;;;;5033060;28;20199;-67
2021/03/24 12:50:58;;;;;;;38.85;22.52;;;22.80;99.90;;;;;;5033805;28;20187;-67
2021/03/24 12:53:34;;;;;;;36.20;20.95;;;22.60;99.90;;;;;;5032991;28;20187;-67
2021/03/24 12:56:18;;;;;;;34.38;19.58;;;22.70;99.90;;;;;;5045400;28;20182;-68
2021/03/24 12:58:47;;;;;;;34.13;20.83;;;23.10;99.70;;;;;;5052590;28;20272;-67
2021/03/24 13:01:26;;;;;;;27.73;17.02;;;23.10;99.80;;;;;;5038287;28;20213;-65
2021/03/24 13:04:01;;;;;;;27.52;15.13;;;23.30;99.30;;;;;;5032610;28;20171;-65
2021/03/24 13:07:25;;;;;;;24.58;14.35;;;23.00;97.70;;;;;;5047905;28;20189;-65
2021/03/24 13:10:13;;;;;;;20.05;13.20;;;22.70;97.40;;;;;;5027880;28;20167;-66
2021/03/24 13:13:17;;;;;;;26.05;14.15;;;22.70;97.80;;;;;;5031116;28;20562;-67
2021/03/24 13:15:59;;;;;;;24.45;13.93;;;23.00;98.20;;;;;;5012624;28;20242;-66
2021/03/24 13:18:40;;;;;;;20.00;13.10;;;23.00;97.20;;;;;;5016190;28;20242;-66
2021/03/24 13:21:50;;;;;;;24.23;13.85;;;22.90;97.10;;;;;;5051990;28;20575;-66
2021/03/24 13:24:50;;;;;;;24.38;12.85;;;22.70;97.30;;;;;;5000286;28;20200;-66
2021/03/24 13:27:34;;;;;;;21.15;11.55;;;22.60;96.30;;;;;;5018455;28;20198;-66
2021/03/24 13:30:09;;;;;;;22.98;11.35;;;22.40;96.80;;;;;;5051629;28;20253;-66